Time;durP1;ratioP1;P1;durP2;ratioP2;P2;SDS_P1;SDS_P2;PMS_P1;PMS_P2;Temp;Humidity;BMP_temperature;BMP_pressure;BME280_temperature;BME280_humidity;BME280_pressure;Samples;Min_cycle;Max_cycle;Signal;HPM_P1;HPM_P2
2021/12/05 00:17:00;;;;;;;13.75;2.78;;;;;;;2.48;97.78;99604.56;2073947;28;20034;-64
2021/12/05 00:22:12;;;;;;;11.65;3.03;;;;;;;2.38;97.90;99598.84;2056751;28;20073;-64
2021/12/05 00:23:19;;;;;;;12.55;3.33;;;;;;;2.37;97.34;99607.47;2056809;28;20089;-63
2021/12/05 00:24:24;;;;;;;7.80;2.95;;;;;;;2.36;97.67;99592.06;2048645;29;20070;-64
2021/12/05 00:25:28;;;;;;;8.95;2.97;;;;;;;2.35;97.84;99598.06;2056450;28;20042;-64
2021/12/05 00:26:30;;;;;;;7.43;3.20;;;;;;;2.36;97.78;99610.06;2057429;28;20106;-63
2021/12/05 00:27:38;;;;;;;12.45;3.28;;;;;;;2.34;97.63;99601.53;2065168;28;20496;-64
2021/12/05 00:29:08;;;;;;;8.18;2.47;;;;;;;2.32;97.87;99593.84;2073787;28;20471;-64
2021/12/05 00:30:50;;;;;;;8.73;3.28;;;;;;;2.26;98.40;99610.31;2065019;28;20064;-63
2021/12/05 00:31:58;;;;;;;12.13;3.38;;;;;;;2.23;98.23;99605.28;2070556;28;20038;-63
2021/12/05 00:33:21;;;;;;;8.93;4.03;;;;;;;2.23;98.34;99602.69;2073759;28;20344;-63
2021/12/05 00:49:10;;;;;;;9.52;3.30;;;;;;;1.85;100.00;99612.28;2073796;28;20029;-64
2021/12/05 00:55:33;;;;;;;11.32;3.85;;;;;;;1.75;100.00;99609.94;2073731;28;20415;-63
2021/12/05 00:57:09;;;;;;;16.42;4.35;;;;;;;1.69;100.00;99607.53;2073612;28;20443;-64
2021/12/05 00:58:58;;;;;;;17.38;4.43;;;;;;;1.64;100.00;99606.81;2073339;28;20037;-64
2021/12/05 01:02:32;;;;;;;13.13;3.47;;;;;;;1.53;100.00;99600.19;2053083;28;20532;-64
2021/12/05 01:08:43;;;;;;;13.07;3.42;;;;;;;1.52;100.00;99608.81;2073702;28;20471;-64
2021/12/05 01:10:29;;;;;;;11.27;2.20;;;;;;;1.56;100.00;99619.00;2073557;28;20026;-64
2021/12/05 01:11:30;;;;;;;11.60;3.70;;;;;;;1.60;100.00;99615.47;2071347;28;20053;-64
2021/12/05 01:15:22;;;;;;;16.52;4.40;;;;;;;1.50;100.00;99615.69;2044669;28;20043;-63
2021/12/05 01:16:25;;;;;;;11.43;3.58;;;;;;;1.50;100.00;99609.69;2073459;28;20084;-65
2021/12/05 01:17:32;;;;;;;12.95;3.08;;;;;;;1.43;100.00;99606.44;2073596;28;20058;-64
2021/12/05 01:18:35;;;;;;;11.57;3.03;;;;;;;1.37;100.00;99604.03;2073469;28;20030;-64
2021/12/05 01:19:35;;;;;;;10.10;3.08;;;;;;;1.36;100.00;99605.75;2073485;28;20088;-64
2021/12/05 01:20:40;;;;;;;10.77;3.43;;;;;;;1.40;100.00;99603.94;2064718;28;20503;-64
2021/12/05 01:21:41;;;;;;;10.95;3.28;;;;;;;1.45;100.00;99604.69;2065462;28;20023;-63
2021/12/05 01:22:48;;;;;;;7.35;3.65;;;;;;;1.50;100.00;99610.56;2073527;28;20101;-64
2021/12/05 01:25:17;;;;;;;11.07;3.13;;;;;;;1.41;100.00;99605.66;2073389;28;20037;-64
2021/12/05 01:26:23;;;;;;;13.48;2.65;;;;;;;1.38;100.00;99608.28;2073470;28;20060;-64
2021/12/05 01:27:38;;;;;;;15.25;3.78;;;;;;;1.34;100.00;99609.25;2064645;28;20038;-64
2021/12/05 01:30:11;;;;;;;10.27;2.80;;;;;;;1.30;100.00;99607.63;2073588;28;20041;-63
2021/12/05 01:31:25;;;;;;;15.18;3.53;;;;;;;1.33;100.00;99613.53;2073512;28;20091;-63
2021/12/05 01:32:53;;;;;;;17.60;4.28;;;;;;;1.34;100.00;99609.25;2073430;28;20553;-65
2021/12/05 01:35:11;;;;;;;11.88;2.97;;;;;;;1.40;100.00;99609.09;2065253;28;20050;-64
2021/12/05 01:36:20;;;;;;;12.68;2.97;;;;;;;1.39;100.00;99607.41;2073346;28;20021;-63
2021/12/05 01:38:30;;;;;;;11.88;3.20;;;;;;;1.33;100.00;99607.56;2073300;28;20022;-64
2021/12/05 01:46:50;;;;;;;11.80;3.35;;;;;;;1.23;100.00;99610.34;2075025;28;20029;-63
2021/12/05 01:57:35;;;;;;;16.55;3.03;;;;;;;1.35;100.00;99606.66;2074985;28;20145;-64
2021/12/05 02:00:12;;;;;;;10.73;3.70;;;;;;;1.28;100.00;99610.25;2074947;28;20110;-64
2021/12/05 02:01:27;;;;;;;13.23;3.00;;;;;;;1.24;100.00;99609.47;2074942;28;20419;-64
2021/12/05 02:29:34;;;;;;;9.80;2.45;;;;;;;1.26;100.00;99587.13;2074706;28;20559;-65
2021/12/05 02:29:47;;;;;;;9.90;2.55;;;;;;;1.26;100.00;99592.28;2074631;28;20030;-64
2021/12/05 02:32:20;;;;;;;10.82;2.88;;;;;;;1.31;100.00;99588.75;2067230;28;20033;-64
2021/12/05 02:34:39;;;;;;;6.70;2.78;;;;;;;1.33;100.00;99587.00;2066768;28;20050;-64
2021/12/05 02:35:57;;;;;;;7.32;2.13;;;;;;;1.32;100.00;99587.84;2074459;28;20042;-63
2021/12/05 02:41:38;;;;;;;8.15;2.17;;;;;;;1.31;100.00;99573.31;2074550;28;20125;-63
2021/12/05 02:42:46;;;;;;;11.80;3.00;;;;;;;1.32;100.00;99583.56;2074446;28;20054;-63
2021/12/05 02:43:57;;;;;;;11.85;3.17;;;;;;;1.33;100.00;99582.69;2074361;28;20026;-63
2021/12/05 02:44:59;;;;;;;8.45;2.65;;;;;;;1.34;100.00;99584.41;2074469;28;20030;-65
2021/12/05 02:46:03;;;;;;;7.43;3.33;;;;;;;1.34;100.00;99575.84;2074492;28;20037;-63
2021/12/05 02:47:12;;;;;;;8.10;2.30;;;;;;;1.35;100.00;99580.94;2074464;28;20028;-63
2021/12/05 02:48:15;;;;;;;9.80;3.63;;;;;;;1.41;100.00;99575.63;2074481;28;20538;-64
2021/12/05 02:49:17;;;;;;;9.63;2.92;;;;;;;1.40;100.00;99583.38;2074496;28;20041;-64
2021/12/05 02:50:20;;;;;;;6.22;2.45;;;;;;;1.39;100.00;99579.13;2065789;28;20030;-64
2021/12/05 02:51:24;;;;;;;9.85;2.50;;;;;;;1.36;100.00;99585.19;2066231;28;20026;-63
2021/12/05 02:52:32;;;;;;;8.88;2.63;;;;;;;1.39;100.00;99582.53;2074600;28;20036;-64
2021/12/05 02:54:42;;;;;;;;;;;;;;;1.50;100.00;99584.84;2073913;28;20063;-63
2021/12/05 02:55:44;;;;;;;10.48;2.50;;;;;;;1.56;100.00;99588.13;2065758;28;20391;-64
2021/12/05 02:56:49;;;;;;;5.22;1.92;;;;;;;1.54;100.00;99580.50;2066007;28;20030;-65
2021/12/05 02:57:53;;;;;;;6.07;2.40;;;;;;;1.53;100.00;99586.50;2074470;28;20591;-63
2021/12/05 02:58:58;;;;;;;6.80;2.08;;;;;;;1.53;100.00;99584.78;2065622;28;20065;-64
2021/12/05 03:00:06;;;;;;;6.30;2.03;;;;;;;1.55;100.00;99584.75;2058094;28;20022;-64
2021/12/05 03:01:21;;;;;;;10.13;2.35;;;;;;;1.58;100.00;99588.94;2066685;28;20022;-63
2021/12/05 03:02:27;;;;;;;5.60;2.35;;;;;;;1.61;100.00;99581.16;2074462;28;20372;-63
2021/12/05 03:03:32;;;;;;;7.03;2.55;;;;;;;1.62;100.00;99575.13;2074395;28;20117;-63
2021/12/05 03:04:33;;;;;;;12.80;2.83;;;;;;;1.63;100.00;99579.38;2065545;28;20033;-63
2021/12/05 03:05:33;;;;;;;7.18;2.17;;;;;;;1.67;100.00;99581.00;2065691;28;20164;-65
2021/12/05 03:06:35;;;;;;;12.63;2.87;;;;;;;1.69;100.00;99584.38;2074414;28;20041;-64
2021/12/05 03:07:39;;;;;;;6.38;2.13;;;;;;;1.73;100.00;99572.28;2074560;28;20128;-63
2021/12/05 03:08:40;;;;;;;8.07;3.00;;;;;;;1.77;100.00;99579.03;2065646;28;20026;-64
2021/12/05 03:09:43;;;;;;;4.78;2.10;;;;;;;1.79;100.00;99575.53;2065656;28;20105;-64
2021/12/05 03:10:43;;;;;;;11.65;2.67;;;;;;;1.83;100.00;99581.44;2074356;28;20041;-64
2021/12/05 03:11:45;;;;;;;6.00;1.90;;;;;;;1.84;100.00;99572.00;2074316;28;20116;-63
2021/12/05 03:12:46;;;;;;;12.50;3.03;;;;;;;1.87;100.00;99577.06;2074343;28;20487;-63
2021/12/05 03:13:47;;;;;;;9.70;2.90;;;;;;;1.90;100.00;99572.69;2074422;28;20399;-63
2021/12/05 03:14:50;;;;;;;7.93;2.95;;;;;;;1.93;100.00;99576.91;2074238;28;20390;-64
2021/12/05 03:15:51;;;;;;;10.00;2.90;;;;;;;1.97;100.00;99568.22;2074292;28;20057;-63
2021/12/05 03:16:51;;;;;;;8.07;2.42;;;;;;;2.01;100.00;99574.97;2074349;28;20018;-65
2021/12/05 03:17:53;;;;;;;5.55;2.65;;;;;;;2.02;100.00;99575.81;2074305;28;20391;-64
2021/12/05 03:18:53;;;;;;;;;;;;;;;2.03;100.00;99568.06;2074650;28;20498;-63
2021/12/05 03:19:53;;;;;;;9.27;2.65;;;;;;;2.01;100.00;99569.81;2074268;28;20169;-64
2021/12/05 03:20:54;;;;;;;7.87;2.60;;;;;;;2.03;100.00;99575.78;2074282;28;20052;-64
2021/12/05 03:21:55;;;;;;;10.15;2.75;;;;;;;2.02;100.00;99575.81;2065522;28;20261;-64
2021/12/05 03:22:55;;;;;;;7.07;2.80;;;;;;;2.03;100.00;99567.19;2065600;28;20467;-65
2021/12/05 03:23:56;;;;;;;9.30;3.00;;;;;;;2.04;100.00;99568.88;2074310;28;20076;-64
2021/12/05 03:24:57;;;;;;;;;;;;;;;2.04;100.00;99571.44;2074576;28;20547;-65
2021/12/05 03:25:57;;;;;;;7.07;2.45;;;;;;;2.04;100.00;99571.44;2065413;28;19917;-65
2021/12/05 03:26:58;;;;;;;4.17;3.20;;;;;;;2.05;100.00;99573.13;2065494;28;20029;-64
2021/12/05 03:27:58;;;;;;;8.82;2.80;;;;;;;2.04;100.00;99567.16;2074196;28;20041;-64
2021/12/05 03:28:59;;;;;;;9.37;2.60;;;;;;;2.02;100.00;99562.94;2065425;28;20034;-64
2021/12/05 03:30:00;;;;;;;9.27;2.60;;;;;;;2.02;100.00;99566.34;2065471;28;20074;-64
2021/12/05 03:31:01;;;;;;;7.63;3.25;;;;;;;2.04;100.00;99559.44;2074242;28;20029;-64
2021/12/05 03:32:01;;;;;;;8.43;3.00;;;;;;;2.04;100.00;99566.31;2074186;28;20513;-64
2021/12/05 03:33:02;;;;;;;8.73;2.67;;;;;;;2.05;100.00;99567.97;2065462;28;20411;-64
2021/12/05 03:34:05;;;;;;;7.07;2.47;;;;;;;2.04;100.00;99559.44;2065456;28;20285;-64
2021/12/05 03:35:08;;;;;;;9.02;3.05;;;;;;;2.03;100.00;99554.34;2074136;28;20026;-64
2021/12/05 03:36:09;;;;;;;6.60;2.83;;;;;;;2.04;100.00;99569.72;2074163;28;20029;-64
2021/12/05 03:37:10;;;;;;;;;;;;;;;2.05;100.00;99555.97;2065762;28;20026;-64
2021/12/05 03:38:11;;;;;;;9.20;2.35;;;;;;;2.05;100.00;99561.13;2065468;28;20386;-64
2021/12/05 03:39:12;;;;;;;9.07;2.63;;;;;;;2.08;100.00;99570.47;2073972;28;20026;-64
2021/12/05 03:40:13;;;;;;;7.43;3.00;;;;;;;2.09;100.00;99563.63;2074071;28;20084;-65
2021/12/05 03:41:14;;;;;;;5.75;2.80;;;;;;;2.08;100.00;99574.81;2074146;28;20026;-65
2021/12/05 03:42:15;;;;;;;7.75;2.78;;;;;;;2.05;100.00;99561.13;2073982;28;20487;-63
2021/12/05 03:43:18;;;;;;;6.90;2.72;;;;;;;2.05;100.00;99566.28;2073995;28;20069;-64
2021/12/05 03:44:20;;;;;;;9.02;3.05;;;;;;;2.08;100.00;99579.94;2073802;28;20136;-64
2021/12/05 03:45:26;;;;;;;7.60;2.85;;;;;;;2.05;100.00;99568.84;2065227;28;20189;-64
2021/12/05 03:46:27;;;;;;;6.82;2.90;;;;;;;2.05;100.00;99575.72;2065906;28;20049;-64
2021/12/05 03:47:28;;;;;;;12.80;3.13;;;;;;;2.05;100.00;99571.41;2074033;28;20034;-63
2021/12/05 03:48:33;;;;;;;8.10;2.78;;;;;;;2.06;100.00;99560.22;2065207;28;20077;-64
2021/12/05 03:49:35;;;;;;;6.82;2.40;;;;;;;2.11;100.00;99561.81;2065787;28;20117;-64
2021/12/05 03:50:36;;;;;;;6.97;2.42;;;;;;;2.12;100.00;99577.22;2073912;28;20104;-64
2021/12/05 03:51:40;;;;;;;6.53;2.75;;;;;;;2.17;100.00;99566.81;2073940;28;20367;-65
2021/12/05 03:52:41;;;;;;;6.63;2.47;;;;;;;2.19;100.00;99573.59;2073796;28;20124;-64
2021/12/05 03:53:42;;;;;;;6.97;3.08;;;;;;;2.20;100.00;99569.31;2073914;28;20028;-64
2021/12/05 03:54:43;;;;;;;6.40;2.45;;;;;;;2.21;100.00;99573.56;2074248;28;20014;-64
2021/12/05 03:55:46;;;;;;;15.57;3.17;;;;;;;2.23;100.00;99571.81;2073953;28;20132;-64
2021/12/05 03:56:47;;;;;;;6.38;2.88;;;;;;;2.22;100.00;99572.66;2073926;28;20479;-64
2021/12/05 03:57:48;;;;;;;;;;;;;;;2.24;100.00;99576.06;2074385;28;20028;-63
2021/12/05 03:58:51;;;;;;;10.73;4.85;;;;;;;2.23;100.00;99568.38;2073908;28;19920;-63
2021/12/05 03:59:52;;;;;;;5.63;2.70;;;;;;;2.24;100.00;99570.06;2073860;28;20069;-65
2021/12/05 04:00:55;;;;;;;5.70;3.27;;;;;;;2.25;100.00;99572.59;2073944;28;20072;-63
2021/12/05 04:01:56;;;;;;;4.70;2.55;;;;;;;2.26;100.00;99568.28;2073900;28;20440;-65
2021/12/05 04:03:00;;;;;;;8.65;3.05;;;;;;;2.26;100.00;99569.13;2073961;28;20105;-66
2021/12/05 04:04:02;;;;;;;5.22;3.10;;;;;;;2.25;100.00;99572.59;2073927;28;20079;-63
2021/12/05 04:05:03;;;;;;;;;;;;;;;2.28;100.00;99572.50;2074206;28;20029;-62
2021/12/05 04:06:05;;;;;;;5.88;2.60;;;;;;;2.31;100.00;99567.28;2064675;28;19914;-63
2021/12/05 04:07:06;;;;;;;5.45;2.10;;;;;;;2.35;100.00;99572.31;2065285;28;20049;-64
2021/12/05 04:08:10;;;;;;;7.10;2.85;;;;;;;2.35;100.00;99572.31;2073833;28;20022;-64
2021/12/05 04:09:12;;;;;;;8.10;2.75;;;;;;;2.37;99.81;99567.97;2073863;28;20475;-64
2021/12/05 04:10:13;;;;;;;8.77;2.95;;;;;;;2.36;100.00;99564.53;2065120;28;20022;-64
2021/12/05 04:11:25;;;;;;;5.72;2.45;;;;;;;2.37;100.00;99570.56;2065270;28;20415;-64
2021/12/05 04:12:25;;;;;;;6.93;2.85;;;;;;;2.38;99.80;99572.22;2073847;28;20040;-64
2021/12/05 04:13:26;;;;;;;7.77;2.93;;;;;;;2.37;100.00;99570.56;2073930;28;20497;-63
2021/12/05 04:14:33;;;;;;;10.30;2.63;;;;;;;2.39;100.00;99573.94;2073663;28;20037;-64
2021/12/05 04:15:34;;;;;;;7.90;2.20;;;;;;;2.40;99.97;99567.91;2073923;28;20301;-63
2021/12/05 04:16:36;;;;;;;7.88;2.72;;;;;;;2.42;100.00;99571.25;2073957;28;20556;-64
2021/12/05 04:17:39;;;;;;;5.25;2.30;;;;;;;2.40;100.00;99573.03;2065133;28;20030;-64
2021/12/05 04:18:39;;;;;;;8.20;2.47;;;;;;;2.41;99.57;99567.00;2065330;28;20037;-64
2021/12/05 04:19:40;;;;;;;4.93;2.30;;;;;;;2.45;99.58;99571.16;2073912;28;20387;-64
2021/12/05 04:20:40;;;;;;;7.25;2.85;;;;;;;2.46;99.68;99572.03;2073912;28;20033;-64
2021/12/05 04:21:41;;;;;;;9.83;2.77;;;;;;;2.45;100.00;99568.59;2073969;28;20077;-64
2021/12/05 04:22:44;;;;;;;3.92;2.10;;;;;;;2.44;99.54;99567.75;2065165;28;20018;-65
2021/12/05 04:23:45;;;;;;;6.50;2.40;;;;;;;2.46;100.00;99577.19;2065584;28;20073;-66
2021/12/05 04:24:46;;;;;;;6.47;2.53;;;;;;;2.46;99.72;99574.59;2073822;28;20165;-65
2021/12/05 04:25:51;;;;;;;11.75;3.63;;;;;;;2.45;99.94;99573.75;2073980;28;20490;-64
2021/12/05 04:26:51;;;;;;;6.75;2.22;;;;;;;2.46;99.89;99580.56;2073902;28;20056;-64
2021/12/05 04:27:54;;;;;;;5.63;2.25;;;;;;;2.47;99.72;99577.13;2073831;28;20032;-65
2021/12/05 04:28:55;;;;;;;6.28;2.78;;;;;;;2.48;99.62;99571.09;2073799;28;20025;-64
2021/12/05 04:29:55;;;;;;;8.45;2.42;;;;;;;2.50;99.47;99576.19;2073879;28;20476;-65
2021/12/05 04:30:56;;;;;;;6.93;2.43;;;;;;;2.52;99.53;99572.69;2073742;28;20060;-64
2021/12/05 04:31:56;;;;;;;6.55;2.47;;;;;;;2.51;100.00;99571.00;2073840;28;20034;-64
2021/12/05 04:32:57;;;;;;;6.40;2.10;;;;;;;2.51;99.87;99572.72;2073844;28;20065;-65
2021/12/05 04:33:57;;;;;;;7.63;2.20;;;;;;;2.51;99.74;99578.72;2073781;28;20108;-64
2021/12/05 04:34:58;;;;;;;3.77;2.67;;;;;;;2.51;99.95;99573.59;2073805;28;20022;-64
2021/12/05 04:35:58;;;;;;;5.78;2.58;;;;;;;2.53;99.27;99576.94;2073917;28;20425;-64
2021/12/05 04:36:59;;;;;;;8.27;2.17;;;;;;;2.53;99.60;99571.78;2073779;28;20486;-64
2021/12/05 04:37:59;;;;;;;6.25;2.13;;;;;;;2.54;99.34;99573.47;2073747;28;20022;-64
2021/12/05 04:39:00;;;;;;;3.60;2.10;;;;;;;2.55;99.63;99579.47;2073747;28;20021;-65
2021/12/05 04:40:00;;;;;;;5.05;2.53;;;;;;;2.56;99.40;99576.84;2073705;28;20489;-65
2021/12/05 04:41:01;;;;;;;5.33;2.30;;;;;;;2.56;99.54;99571.69;2073791;28;20467;-64
2021/12/05 04:42:02;;;;;;;10.93;3.17;;;;;;;2.59;99.32;99580.25;2073789;28;20026;-65
2021/12/05 04:43:05;;;;;;;5.50;2.73;;;;;;;2.60;99.39;99574.19;2073684;28;20399;-64
2021/12/05 04:44:06;;;;;;;5.47;1.95;;;;;;;2.60;99.32;99581.91;2073536;28;20115;-64
2021/12/05 04:45:12;;;;;;;7.72;2.13;;;;;;;2.61;99.40;99584.44;2073638;28;20018;-64
2021/12/05 04:46:15;;;;;;;6.80;2.25;;;;;;;2.61;99.38;99573.28;2073686;28;20038;-65
2021/12/05 04:47:16;;;;;;;7.88;2.30;;;;;;;2.61;99.27;99583.59;2073737;28;20100;-65
2021/12/05 04:48:16;;;;;;;7.75;2.40;;;;;;;2.62;99.11;99585.28;2073674;28;20077;-64
2021/12/05 04:49:18;;;;;;;6.85;2.47;;;;;;;2.62;99.32;99578.41;2073683;28;20113;-64
2021/12/05 04:50:19;;;;;;;6.35;1.98;;;;;;;2.61;99.51;99579.31;2073776;28;20029;-64
2021/12/05 04:51:24;;;;;;;3.83;2.15;;;;;;;2.63;99.87;99584.41;2064862;28;20093;-64
2021/12/05 04:52:24;;;;;;;7.03;1.95;;;;;;;2.62;99.71;99582.69;2065505;28;20026;-64
2021/12/05 04:53:27;;;;;;;9.57;2.70;;;;;;;2.61;99.77;99576.72;2073709;28;20026;-65
2021/12/05 04:54:27;;;;;;;4.78;2.00;;;;;;;2.60;99.57;99577.59;2064719;28;20125;-65
2021/12/05 04:55:28;;;;;;;6.53;2.77;;;;;;;2.61;99.66;99566.41;2064930;28;20022;-64
2021/12/05 04:56:29;;;;;;;5.30;2.30;;;;;;;2.63;99.52;99571.53;2073474;28;20026;-64
2021/12/05 04:57:29;;;;;;;7.65;2.35;;;;;;;2.61;100.00;99575.88;2073377;28;20030;-63
2021/12/05 04:58:30;;;;;;;3.73;2.23;;;;;;;2.61;99.84;99573.28;2073665;28;20064;-65
2021/12/05 04:59:34;;;;;;;6.95;2.40;;;;;;;2.59;100.00;99573.34;2073620;28;20475;-65
2021/12/05 05:00:41;;;;;;;5.50;2.45;;;;;;;2.60;99.66;99579.34;2064791;28;20042;-64
2021/12/05 05:01:45;;;;;;;7.30;2.28;;;;;;;2.61;99.85;99573.28;2065683;28;20053;-64
2021/12/05 05:02:45;;;;;;;9.40;2.58;;;;;;;2.61;99.78;99578.44;2073595;28;20055;-65
2021/12/05 05:03:46;;;;;;;3.83;2.17;;;;;;;2.60;100.00;99571.63;2073650;28;20018;-65
2021/12/05 05:04:47;;;;;;;13.02;2.97;;;;;;;2.57;100.00;99565.66;2073563;28;20451;-65
2021/12/05 05:06:08;;;;;;;5.30;2.90;;;;;;;2.58;100.00;99566.50;2073686;28;20020;-65
2021/12/05 05:07:15;;;;;;;6.78;3.08;;;;;;;2.57;100.00;99565.66;2073616;28;20105;-64
2021/12/05 05:08:17;;;;;;;5.18;2.60;;;;;;;2.59;100.00;99575.09;2073631;28;20029;-64
2021/12/05 05:09:17;;;;;;;4.30;2.17;;;;;;;2.57;100.00;99568.22;2064789;28;20018;-65
2021/12/05 05:10:24;;;;;;;6.40;2.28;;;;;;;2.57;100.00;99567.41;2064856;28;20061;-64
2021/12/05 05:11:25;;;;;;;4.05;2.28;;;;;;;2.55;100.00;99571.75;2073599;28;20018;-64
2021/12/05 05:12:26;;;;;;;5.85;2.28;;;;;;;2.54;100.00;99578.63;2073606;28;20458;-64
2021/12/05 05:13:26;;;;;;;5.33;2.10;;;;;;;2.54;100.00;99572.63;2073623;28;20077;-64
2021/12/05 05:14:27;;;;;;;5.10;2.87;;;;;;;2.54;100.00;99580.38;2073561;28;20372;-63
2021/12/05 05:15:30;;;;;;;8.15;3.47;;;;;;;2.53;100.00;99576.13;2073639;28;20018;-64
2021/12/05 05:16:30;;;;;;;4.43;2.08;;;;;;;2.54;100.00;99578.63;2073564;28;20033;-64
2021/12/05 05:17:30;;;;;;;4.87;2.10;;;;;;;2.52;100.00;99580.41;2064888;28;20113;-63
2021/12/05 05:18:41;;;;;;;5.23;2.13;;;;;;;2.51;100.00;99583.03;2066129;28;20030;-64
2021/12/05 05:19:48;;;;;;;4.63;2.30;;;;;;;2.50;100.00;99579.59;2068013;28;20022;-63
2021/12/05 05:20:58;;;;;;;7.18;4.30;;;;;;;2.50;100.00;99579.59;2075235;28;20650;-64
2021/12/05 05:22:20;;;;;;;4.05;2.00;;;;;;;2.48;100.00;99578.81;2075204;28;20025;-63
2021/12/05 05:26:14;;;;;;;3.45;2.45;;;;;;;2.45;100.00;99578.91;2075389;28;20036;-64
2021/12/05 05:30:40;;;;;;;8.40;2.70;;;;;;;2.46;100.00;99590.88;2075325;28;20048;-64
2021/12/05 05:39:45;;;;;;;4.57;1.63;;;;;;;2.42;100.00;99595.28;2074976;28;20355;-64
2021/12/05 05:48:52;;;;;;;5.00;1.55;;;;;;;2.24;100.00;99606.94;2075098;28;20113;-63
2021/12/05 05:49:59;;;;;;;3.10;1.23;;;;;;;2.23;100.00;99605.28;2074948;28;20025;-63
2021/12/05 05:51:00;;;;;;;2.30;1.20;;;;;;;2.21;100.00;99599.31;2074922;28;20375;-64
2021/12/05 05:52:01;;;;;;;2.63;1.15;;;;;;;2.19;100.00;99608.81;2074926;28;20064;-64
2021/12/05 05:53:02;;;;;;;4.65;1.45;;;;;;;2.17;100.00;99613.16;2074983;28;20022;-64
2021/12/05 05:54:02;;;;;;;2.20;1.13;;;;;;;2.14;100.00;99616.66;2075009;28;20022;-64
2021/12/05 05:55:03;;;;;;;3.63;1.20;;;;;;;2.13;100.00;99614.13;2074839;28;20273;-65
2021/12/05 05:56:06;;;;;;;3.28;1.30;;;;;;;2.11;100.00;99615.88;2074975;28;20021;-64
2021/12/05 05:57:16;;;;;;;2.45;1.30;;;;;;;2.09;100.00;99613.34;2074919;28;20036;-65
2021/12/05 05:58:20;;;;;;;2.95;1.50;;;;;;;2.06;100.00;99619.41;2074868;28;20026;-65
2021/12/05 05:59:25;;;;;;;4.25;1.25;;;;;;;2.06;100.00;99613.44;2074937;28;20387;-64
2021/12/05 06:00:36;;;;;;;2.85;1.30;;;;;;;2.03;100.00;99614.38;2074917;28;20041;-65
2021/12/05 06:03:56;;;;;;;6.05;1.30;;;;;;;2.00;100.00;99614.47;2074807;28;20446;-64
2021/12/05 06:04:56;;;;;;;3.67;1.20;;;;;;;1.98;100.00;99616.22;2074854;28;20100;-64
2021/12/05 06:06:03;;;;;;;1.80;1.00;;;;;;;1.97;100.00;99622.25;2074894;28;20396;-64
2021/12/05 06:07:03;;;;;;;1.50;0.90;;;;;;;1.96;100.00;99612.00;2074760;28;20026;-64
2021/12/05 06:08:04;;;;;;;1.57;0.87;;;;;;;1.95;100.00;99616.28;2074766;28;20033;-65
2021/12/05 06:09:04;;;;;;;3.33;1.07;;;;;;;1.95;100.00;99621.44;2074851;28;20065;-64
2021/12/05 06:10:05;;;;;;;2.00;1.30;;;;;;;1.95;100.00;99621.44;2074832;28;20109;-64
2021/12/05 06:11:13;;;;;;;1.95;1.10;;;;;;;1.93;100.00;99623.22;2074795;28;20037;-64
2021/12/05 06:12:14;;;;;;;2.78;1.15;;;;;;;1.92;100.00;99627.50;2074775;28;20091;-64
2021/12/05 06:13:16;;;;;;;1.83;1.13;;;;;;;1.92;100.00;99626.69;2074830;28;20537;-64
2021/12/05 06:14:16;;;;;;;2.20;1.15;;;;;;;1.91;100.00;99623.25;2074880;28;20057;-64
2021/12/05 06:15:19;;;;;;;2.00;1.03;;;;;;;1.90;100.00;99623.28;2074761;28;20072;-63
2021/12/05 06:16:20;;;;;;;2.85;1.20;;;;;;;1.90;100.00;99625.88;2074775;28;20037;-64
2021/12/05 06:17:20;;;;;;;1.27;0.80;;;;;;;1.90;100.00;99625.88;2074688;28;20152;-65
2021/12/05 06:18:21;;;;;;;2.37;0.90;;;;;;;1.91;100.00;99630.13;2074799;28;20025;-64
2021/12/05 06:19:21;;;;;;;3.28;1.40;;;;;;;1.90;100.00;99625.88;2074629;28;20038;-64
2021/12/05 06:20:25;;;;;;;1.60;1.03;;;;;;;1.90;100.00;99623.28;2074682;28;20025;-64
2021/12/05 06:21:25;;;;;;;3.78;1.00;;;;;;;1.89;100.00;99630.16;2074747;28;20032;-63
2021/12/05 06:22:26;;;;;;;3.63;0.93;;;;;;;1.89;100.00;99639.63;2074742;28;20036;-64
2021/12/05 06:23:27;;;;;;;2.70;1.10;;;;;;;1.87;100.00;99637.09;2065958;28;20134;-64
2021/12/05 06:24:27;;;;;;;2.97;0.98;;;;;;;1.88;100.00;99635.38;2065971;28;20060;-64
2021/12/05 06:25:30;;;;;;;1.95;1.20;;;;;;;1.88;100.00;99633.63;2074722;28;20030;-64
2021/12/05 06:26:34;;;;;;;2.90;1.00;;;;;;;1.88;100.00;99635.38;2074777;28;20473;-63
2021/12/05 06:27:35;;;;;;;3.60;1.30;;;;;;;1.87;100.00;99633.66;2074680;28;20083;-64
2021/12/05 06:28:40;;;;;;;1.43;0.90;;;;;;;1.87;100.00;99638.81;2074509;28;20116;-64
2021/12/05 06:29:48;;;;;;;2.58;0.95;;;;;;;1.87;100.00;99636.22;2074705;28;20117;-64
2021/12/05 06:30:55;;;;;;;2.40;1.00;;;;;;;1.86;100.00;99642.25;2074661;28;20026;-64
2021/12/05 06:32:32;;;;;;;2.08;0.90;;;;;;;1.87;100.00;99641.38;2065764;28;20035;-65
2021/12/05 06:37:33;;;;;;;1.80;1.00;;;;;;;1.88;100.00;99646.47;2074716;28;20483;-64
2021/12/05 06:39:04;;;;;;;2.08;1.17;;;;;;;1.88;100.00;99643.09;2074599;28;20025;-64
2021/12/05 06:46:10;;;;;;;5.10;1.83;;;;;;;1.89;100.00;99655.88;2074683;28;20030;-65
2021/12/05 06:47:12;;;;;;;2.80;1.55;;;;;;;1.90;100.00;99659.31;2074514;28;20029;-63
2021/12/05 06:48:12;;;;;;;2.60;1.70;;;;;;;1.90;100.00;99656.75;2074539;28;20026;-63
2021/12/05 06:49:13;;;;;;;2.23;1.80;;;;;;;1.91;100.00;99656.72;2074496;28;20487;-63
2021/12/05 06:50:13;;;;;;;4.03;1.60;;;;;;;1.91;100.00;99659.28;2074431;28;20030;-64
2021/12/05 06:51:19;;;;;;;3.10;1.50;;;;;;;1.92;100.00;99658.38;2065825;28;20030;-63
2021/12/05 06:52:19;;;;;;;2.47;1.65;;;;;;;1.91;100.00;99654.13;2066441;28;20057;-63
2021/12/05 06:53:19;;;;;;;2.13;1.47;;;;;;;1.93;100.00;99666.97;2074498;28;20025;-63
2021/12/05 06:54:19;;;;;;;2.03;1.50;;;;;;;1.93;100.00;99659.25;2074605;28;20032;-63
2021/12/05 06:55:20;;;;;;;2.10;1.50;;;;;;;1.94;100.00;99666.06;2074547;28;20452;-63
2021/12/05 06:56:21;;;;;;;3.33;1.70;;;;;;;1.95;100.00;99666.94;2074508;28;20057;-64
2021/12/05 06:57:21;;;;;;;;;;;;;;;1.96;100.00;99663.47;2074970;28;20030;-63
2021/12/05 06:58:22;;;;;;;2.28;1.70;;;;;;;1.96;100.00;99669.47;2074597;28;19920;-64
2021/12/05 06:59:22;;;;;;;3.90;1.43;;;;;;;1.96;100.00;99664.31;2074583;28;20475;-63
2021/12/05 07:00:26;;;;;;;3.87;1.90;;;;;;;1.97;100.00;99663.44;2074502;28;20438;-63
2021/12/05 07:01:27;;;;;;;2.63;1.50;;;;;;;1.98;100.00;99667.69;2074520;28;20047;-63
2021/12/05 07:02:27;;;;;;;4.60;2.00;;;;;;;1.98;100.00;99672.00;2074354;28;20037;-63
2021/12/05 07:03:28;;;;;;;2.90;1.93;;;;;;;1.97;100.00;99671.16;2074521;28;20064;-63
2021/12/05 07:06:50;;;;;;;4.00;2.00;;;;;;;1.99;100.00;99684.81;2074383;28;20036;-64
2021/12/05 07:07:50;;;;;;;2.10;1.60;;;;;;;2.00;100.00;99685.66;2065757;28;20061;-65
2021/12/05 07:08:53;;;;;;;3.67;2.10;;;;;;;2.01;100.00;99693.34;2065866;28;20026;-65
2021/12/05 07:09:54;;;;;;;4.20;1.85;;;;;;;2.01;100.00;99687.34;2065649;28;20411;-65
2021/12/05 07:14:52;;;;;;;3.67;2.03;;;;;;;2.02;100.00;99695.03;2074374;28;20038;-64
2021/12/05 07:17:08;;;;;;;4.78;2.30;;;;;;;2.05;100.00;99689.81;2074394;28;20053;-63
2021/12/05 07:21:55;;;;;;;3.80;2.40;;;;;;;2.11;100.00;99699.09;2074303;28;20112;-64
2021/12/05 07:24:35;;;;;;;3.10;2.17;;;;;;;2.12;100.00;99703.34;2074270;28;20030;-63
2021/12/05 07:25:47;;;;;;;4.43;2.30;;;;;;;2.13;100.00;99701.63;2074280;28;20056;-63
2021/12/05 07:40:43;;;;;;;4.63;2.47;;;;;;;2.28;100.00;99718.41;2073294;28;20026;-63
2021/12/05 07:41:52;;;;;;;5.28;2.42;;;;;;;2.27;100.00;99720.16;2065307;28;20018;-63
2021/12/05 07:42:55;;;;;;;4.38;2.35;;;;;;;2.29;100.00;99718.38;2066507;28;20081;-64
2021/12/05 07:43:55;;;;;;;4.63;2.40;;;;;;;2.30;100.00;99725.19;2065092;28;20026;-64
2021/12/05 07:44:58;;;;;;;3.43;2.60;;;;;;;2.29;100.00;99726.09;2065330;28;20057;-64
2021/12/05 07:46:05;;;;;;;3.40;2.53;;;;;;;2.29;100.00;99728.66;2065287;28;20575;-63
2021/12/05 07:47:05;;;;;;;5.20;3.15;;;;;;;2.31;100.00;99726.06;2066367;28;20491;-64
2021/12/05 07:48:12;;;;;;;4.70;2.63;;;;;;;2.31;100.00;99732.06;2074112;28;20026;-64
2021/12/05 07:49:14;;;;;;;2.80;2.00;;;;;;;2.31;100.00;99732.06;2074138;28;20114;-64
2021/12/05 07:50:16;;;;;;;5.22;2.95;;;;;;;2.33;100.00;99738.91;2074087;28;20472;-64
2021/12/05 07:52:22;;;;;;;4.93;2.72;;;;;;;2.35;100.00;99734.53;2073934;28;20037;-64
2021/12/05 07:54:03;;;;;;;6.75;2.55;;;;;;;2.35;100.00;99731.97;2074155;28;20045;-63